createdAt,value
2019-02-02T00:00:01.694Z,97036.92
2019-02-02T00:01:13.861Z,97041.59
2019-02-02T00:02:23.219Z,97048.05
2019-02-02T00:03:31.186Z,97045.75
2019-02-02T00:04:39.656Z,97048.73
2019-02-02T00:05:47.953Z,97058.31
2019-02-02T00:06:55.849Z,97049.22
2019-02-02T00:08:04.268Z,97051.72
2019-02-02T00:09:12.047Z,97048.59
2019-02-02T00:10:20.241Z,97041.02
2019-02-02T00:11:28.338Z,97030.97
2019-02-02T00:12:36.433Z,97046.19
2019-02-02T00:13:44.942Z,97043.06
2019-02-02T00:14:52.662Z,97042.44
2019-02-02T00:16:01.036Z,97046.25
2019-02-02T00:17:09.130Z,97042.64
2019-02-02T00:18:16.869Z,97038.69
2019-02-02T00:19:24.807Z,97028.85
2019-02-02T00:20:32.733Z,97028.56
2019-02-02T00:21:41.415Z,97019.53
2019-02-02T00:22:49.616Z,97033.30
2019-02-02T00:23:57.608Z,97024.61
2019-02-02T00:25:07.242Z,97021.08
2019-02-02T00:26:15.137Z,97022.83
2019-02-02T00:27:23.078Z,97027.18
2019-02-02T00:28:31.148Z,97037.67
2019-02-02T00:29:39.418Z,97030.47
2019-02-02T00:30:47.314Z,97028.57
2019-02-02T00:31:55.842Z,97034.08
2019-02-02T00:33:04.138Z,97040.88
2019-02-02T00:34:12.318Z,97024.89
2019-02-02T00:35:20.425Z,97032.69
2019-02-02T00:36:28.560Z,97033.03
2019-02-02T00:37:36.704Z,97028.24
2019-02-02T00:38:44.337Z,97025.45
2019-02-02T00:39:52.599Z,97027.61
2019-02-02T00:41:01.513Z,97016.91
2019-02-02T00:42:09.613Z,97028.14
2019-02-02T00:43:17.317Z,97023.36
2019-02-02T00:44:25.878Z,97028.37
2019-02-02T00:45:33.940Z,97024.91
2019-02-02T00:46:42.905Z,97027.73
2019-02-02T00:47:50.911Z,97013.22
2019-02-02T00:48:58.704Z,97018.84
2019-02-02T00:50:09.352Z,97015.71
2019-02-02T00:51:17.408Z,97016.20
2019-02-02T00:52:25.374Z,97005.48
2019-02-02T00:53:33.440Z,97004.31
2019-02-02T00:54:41.481Z,97009.11
2019-02-02T00:55:49.393Z,97001.83
2019-02-02T00:56:57.017Z,96997.03
2019-02-02T00:58:05.035Z,97001.48
2019-02-02T00:59:12.900Z,97001.97
2019-02-02T01:00:23.316Z,97005.59
2019-02-02T01:01:31.675Z,96996.47
2019-02-02T01:02:39.387Z,97003.36
2019-02-02T01:03:47.252Z,97005.17
2019-02-02T01:04:55.577Z,97007.47
2019-02-02T01:06:04.952Z,97005.09
2019-02-02T01:07:12.918Z,97007.05
2019-02-02T01:08:20.874Z,97010.67
2019-02-02T01:09:28.741Z,97008.03
2019-02-02T01:10:42.332Z,97003.92
2019-02-02T01:11:50.210Z,97005.58
2019-02-02T01:12:58.151Z,97004.98
2019-02-02T01:14:06.297Z,96994.77
2019-02-02T01:15:16.265Z,96986.02
2019-02-02T01:16:24.080Z,97001.36
2019-02-02T01:17:32.049Z,96983.00
2019-02-02T01:18:39.896Z,96982.89
2019-02-02T01:19:48.248Z,96986.70
2019-02-02T01:20:56.447Z,96986.89
2019-02-02T01:22:04.253Z,96985.42
2019-02-02T01:23:12.682Z,96990.09
2019-02-02T01:24:20.324Z,96989.80
2019-02-02T01:25:28.217Z,96987.50
2019-02-02T01:26:36.468Z,96991.46
2019-02-02T01:27:44.348Z,96987.84
2019-02-02T01:28:52.198Z,96983.88
2019-02-02T01:30:00.463Z,96979.92
2019-02-02T01:31:08.515Z,96981.23
2019-02-02T01:32:16.841Z,96979.09
2019-02-02T01:33:24.639Z,96987.01
2019-02-02T01:34:32.978Z,96980.30
2019-02-02T01:35:40.895Z,96977.16
2019-02-02T01:36:48.700Z,96970.56
2019-02-02T01:37:56.699Z,96974.38
2019-02-02T01:39:06.066Z,96969.92
2019-02-02T01:40:17.684Z,96973.89
2019-02-02T01:41:25.968Z,96978.83
2019-02-02T01:42:33.728Z,96971.39
2019-02-02T01:43:42.091Z,96965.55
2019-02-02T01:44:50.394Z,96965.89
2019-02-02T01:45:58.100Z,96977.09
2019-02-02T01:47:05.888Z,96971.47
2019-02-02T01:48:14.131Z,96965.36
2019-02-02T01:49:22.353Z,96966.87
2019-02-02T01:50:30.779Z,96967.70
2019-02-02T01:51:39.089Z,96976.45
2019-02-02T01:52:47.198Z,96974.30
2019-02-02T01:53:55.078Z,96965.41
2019-02-02T01:55:02.969Z,96977.51
2019-02-02T01:56:10.780Z,96969.44
2019-02-02T01:57:18.581Z,96966.80
2019-02-02T01:58:26.952Z,96964.64
2019-02-02T01:59:35.055Z,96955.55
2019-02-02T02:00:43.050Z,96957.48
2019-02-02T02:01:50.986Z,96952.69
2019-02-02T02:02:59.218Z,96955.82
2019-02-02T02:04:07.276Z,96958.13
2019-02-02T02:05:16.702Z,96952.36
2019-02-02T02:06:24.312Z,96949.03
2019-02-02T02:07:32.723Z,96954.80
2019-02-02T02:08:40.747Z,96955.44
2019-02-02T02:09:48.795Z,96951.59
2019-02-02T02:10:58.318Z,96958.69
2019-02-02T02:12:05.981Z,96960.98
2019-02-02T02:13:14.320Z,96959.33
2019-02-02T02:14:22.271Z,96956.34
2019-02-02T02:15:30.416Z,96960.98
2019-02-02T02:16:38.574Z,96958.98
2019-02-02T02:17:46.953Z,96977.45
2019-02-02T02:18:55.150Z,96968.71
2019-02-02T02:20:03.039Z,96970.86
2019-02-02T02:21:10.857Z,96966.22
2019-02-02T02:22:18.681Z,96962.75
2019-02-02T02:23:26.907Z,96968.86
2019-02-02T02:24:36.211Z,96970.78
2019-02-02T02:25:44.246Z,96973.42
2019-02-02T02:26:52.180Z,96976.70
2019-02-02T02:28:00.201Z,96975.53
2019-02-02T02:29:08.423Z,96980.95
2019-02-02T02:30:24.210Z,96979.63
2019-02-02T02:31:32.190Z,96978.38
2019-02-02T02:32:40.470Z,96964.12
2019-02-02T02:33:48.332Z,96967.06
2019-02-02T02:34:56.744Z,96970.68
2019-02-02T02:36:05.124Z,96965.67
2019-02-02T02:37:13.284Z,96972.06
2019-02-02T02:38:21.099Z,96971.38
2019-02-02T02:39:29.097Z,96971.38
2019-02-02T02:40:37.193Z,96972.36
2019-02-02T02:41:44.884Z,96963.47
2019-02-02T02:42:53.692Z,96971.38
2019-02-02T02:44:01.895Z,96974.70
2019-02-02T02:45:12.001Z,96970.60
2019-02-02T02:46:20.230Z,96976.22
2019-02-02T02:47:28.307Z,96969.42
2019-02-02T02:48:36.324Z,96971.72
2019-02-02T02:49:44.429Z,96966.25
2019-02-02T02:50:53.028Z,96972.70
2019-02-02T02:52:02.372Z,96968.89
2019-02-02T02:53:10.142Z,96970.70
2019-02-02T02:54:18.116Z,96969.84
2019-02-02T02:55:27.252Z,96962.41
2019-02-02T02:56:35.150Z,96968.17
2019-02-02T02:57:42.984Z,96964.70
2019-02-02T02:58:50.939Z,96960.41
2019-02-02T02:59:58.880Z,96951.31
2019-02-02T03:01:06.944Z,96959.72
2019-02-02T03:02:14.827Z,96961.05
2019-02-02T03:03:22.611Z,96962.21
2019-02-02T03:04:30.806Z,96961.92
2019-02-02T03:05:39.000Z,96967.91
2019-02-02T03:06:47.096Z,96969.42
2019-02-02T03:07:56.204Z,96970.45
2019-02-02T03:09:07.032Z,96968.53
2019-02-02T03:10:18.554Z,96972.68
2019-02-02T03:11:26.459Z,96971.10
2019-02-02T03:12:34.548Z,96967.19
2019-02-02T03:13:42.898Z,96973.52
2019-02-02T03:14:51.202Z,96971.91
2019-02-02T03:15:59.764Z,96977.53
2019-02-02T03:17:07.647Z,96980.02
2019-02-02T03:18:15.590Z,96982.17
2019-02-02T03:19:24.155Z,96980.36
2019-02-02T03:20:32.822Z,96979.76
2019-02-02T03:21:43.702Z,96981.77
2019-02-02T03:22:50.644Z,96982.78
2019-02-02T03:23:58.572Z,96984.47
2019-02-02T03:25:17.186Z,96983.01
2019-02-02T03:26:24.950Z,96983.20
2019-02-02T03:27:33.420Z,96978.75
2019-02-02T03:28:52.812Z,96973.70
2019-02-02T03:29:51.040Z,96970.08
2019-02-02T03:30:58.924Z,96964.31
2019-02-02T03:32:06.975Z,96970.56
2019-02-02T03:33:14.915Z,96970.20
2019-02-02T03:34:22.620Z,96958.31
2019-02-02T03:35:30.856Z,96965.06
2019-02-02T03:36:38.747Z,96958.46
2019-02-02T03:37:46.603Z,96966.05
2019-02-02T03:38:54.594Z,96961.41
2019-02-02T03:40:02.377Z,96968.98
2019-02-02T03:41:10.465Z,96960.00
2019-02-02T03:42:18.600Z,96969.88
2019-02-02T03:43:26.879Z,96975.99
2019-02-02T03:44:35.386Z,96971.20
2019-02-02T03:45:43.286Z,96969.73
2019-02-02T03:46:51.477Z,96967.58
2019-02-02T03:47:59.593Z,96966.95
2019-02-02T03:49:08.141Z,96967.77
2019-02-02T03:50:16.087Z,96965.51
2019-02-02T03:51:24.480Z,96972.30
2019-02-02T03:52:32.666Z,96971.33
2019-02-02T03:53:41.405Z,96964.23
2019-02-02T03:54:49.269Z,96973.32
2019-02-02T03:55:57.417Z,96967.21
2019-02-02T03:57:05.719Z,96969.73
2019-02-02T03:58:13.678Z,96975.13
2019-02-02T03:59:21.712Z,96969.52
2019-02-02T04:00:29.663Z,96972.64
2019-02-02T04:01:37.399Z,96980.07
2019-02-02T04:02:45.242Z,96976.45
2019-02-02T04:03:53.684Z,96970.68
2019-02-02T04:05:01.739Z,96964.91
2019-02-02T04:06:09.651Z,96972.38
2019-02-02T04:07:18.116Z,96967.36
2019-02-02T04:08:26.527Z,96968.83
2019-02-02T04:09:34.729Z,96956.39
2019-02-02T04:10:42.959Z,96958.83
2019-02-02T04:11:51.190Z,96961.63
2019-02-02T04:12:59.025Z,96964.90
2019-02-02T04:14:07.297Z,96959.40
2019-02-02T04:15:17.829Z,96957.55
2019-02-02T04:16:25.622Z,96965.12
2019-02-02T04:17:33.462Z,96962.82
2019-02-02T04:18:41.350Z,96958.38
2019-02-02T04:19:49.370Z,96957.55
2019-02-02T04:20:57.149Z,96964.14
2019-02-02T04:22:05.020Z,96964.97
2019-02-02T04:23:13.175Z,96956.08
2019-02-02T04:24:21.073Z,96962.53
2019-02-02T04:25:29.006Z,96969.34
2019-02-02T04:26:36.799Z,96958.64
2019-02-02T04:27:44.816Z,96963.28
2019-02-02T04:28:53.059Z,96960.64
2019-02-02T04:30:01.650Z,96969.88
2019-02-02T04:31:09.614Z,96960.98
2019-02-02T04:32:17.584Z,96964.11
2019-02-02T04:33:25.431Z,96956.88
2019-02-02T04:34:33.106Z,96954.88
2019-02-02T04:35:41.412Z,96957.66
2019-02-02T04:36:49.047Z,96957.81
2019-02-02T04:37:56.996Z,96952.80
2019-02-02T04:39:06.794Z,96958.72
2019-02-02T04:40:16.154Z,96951.44
2019-02-02T04:41:24.163Z,96959.13
2019-02-02T04:42:31.892Z,96958.52
2019-02-02T04:43:39.934Z,96961.84
2019-02-02T04:44:48.011Z,96965.80
2019-02-02T04:45:56.120Z,96965.80
2019-02-02T04:47:04.279Z,96975.87
2019-02-02T04:48:12.375Z,96977.88
2019-02-02T04:49:20.511Z,96974.63
2019-02-02T04:50:28.593Z,96974.48
2019-02-02T04:51:36.471Z,96979.27
2019-02-02T04:52:44.398Z,96982.25
2019-02-02T04:53:52.385Z,96987.72
2019-02-02T04:55:00.443Z,96983.77
2019-02-02T04:56:08.176Z,96980.97
2019-02-02T04:57:15.945Z,96975.23
2019-02-02T04:58:23.773Z,96976.06
2019-02-02T04:59:32.117Z,96973.42
2019-02-02T05:00:40.485Z,96976.90
2019-02-02T05:01:48.717Z,96978.33
2019-02-02T05:02:56.945Z,96982.30
2019-02-02T05:04:05.302Z,96975.50
2019-02-02T05:05:16.181Z,96974.14
2019-02-02T05:06:24.228Z,96965.16
2019-02-02T05:07:32.290Z,96966.55
2019-02-02T05:08:40.738Z,96972.77
2019-02-02T05:09:49.020Z,96982.11
2019-02-02T05:10:57.230Z,96981.38
2019-02-02T05:12:05.274Z,96973.05
2019-02-02T05:13:13.130Z,96979.44
2019-02-02T05:14:20.972Z,96977.55
2019-02-02T05:15:28.743Z,96980.83
2019-02-02T05:16:36.592Z,96974.00
2019-02-02T05:17:44.644Z,96980.05
2019-02-02T05:18:52.848Z,96981.38
2019-02-02T05:20:00.892Z,96986.66
2019-02-02T05:21:09.169Z,96981.38
2019-02-02T05:22:17.081Z,96976.25
2019-02-02T05:23:24.815Z,96979.03
2019-02-02T05:24:32.656Z,96975.53
2019-02-02T05:25:40.748Z,96967.76
2019-02-02T05:26:48.566Z,96957.84
2019-02-02T05:27:56.540Z,96966.39
2019-02-02T05:29:04.592Z,96967.97
2019-02-02T05:30:19.979Z,96963.67
2019-02-02T05:31:27.788Z,96953.41
2019-02-02T05:32:35.725Z,96952.35
2019-02-02T05:33:44.083Z,96955.62
2019-02-02T05:34:52.274Z,96950.34
2019-02-02T05:36:00.543Z,96955.47
2019-02-02T05:37:08.580Z,96946.39
2019-02-02T05:38:16.538Z,96935.70
2019-02-02T05:39:24.454Z,96940.48
2019-02-02T05:40:32.866Z,96929.33
2019-02-02T05:41:40.754Z,96929.67
2019-02-02T05:42:48.631Z,96940.62
2019-02-02T05:43:56.710Z,96927.86
2019-02-02T05:45:04.898Z,96938.69
2019-02-02T05:46:12.754Z,96931.88
2019-02-02T05:47:21.029Z,96932.64
2019-02-02T05:48:30.612Z,96924.84
2019-02-02T05:49:38.699Z,96937.82
2019-02-02T05:50:46.655Z,96922.75
2019-02-02T05:51:54.819Z,96921.69
2019-02-02T05:53:02.974Z,96937.42
2019-02-02T05:54:11.146Z,96948.20
2019-02-02T05:55:21.133Z,96951.26
2019-02-02T05:56:29.004Z,96959.37
2019-02-02T05:57:38.487Z,96955.94
2019-02-02T05:58:46.576Z,96964.77
2019-02-02T05:59:54.520Z,96948.16
2019-02-02T06:01:02.667Z,96957.59
2019-02-02T06:02:10.544Z,96957.78
2019-02-02T06:03:18.497Z,96956.80
2019-02-02T06:04:26.405Z,96945.29
2019-02-02T06:05:34.433Z,96947.78
2019-02-02T06:06:42.355Z,96959.52
2019-02-02T06:07:50.555Z,96955.06
2019-02-02T06:08:58.630Z,96964.98
2019-02-02T06:10:17.084Z,96956.57
2019-02-02T06:11:25.001Z,96969.28
2019-02-02T06:12:33.361Z,96967.84
2019-02-02T06:13:41.216Z,96975.13
2019-02-02T06:14:49.350Z,96974.14
2019-02-02T06:15:57.891Z,96981.43
2019-02-02T06:17:06.156Z,96979.98
2019-02-02T06:18:14.194Z,96974.55
2019-02-02T06:19:23.932Z,96979.69
2019-02-02T06:20:32.088Z,96982.48
2019-02-02T06:21:40.432Z,96985.95
2019-02-02T06:22:48.586Z,96987.61
2019-02-02T06:23:57.257Z,96987.27
2019-02-02T06:25:07.631Z,96975.39
2019-02-02T06:26:15.955Z,96981.50
2019-02-02T06:27:23.945Z,96975.73
2019-02-02T06:28:32.961Z,96976.22
2019-02-02T06:29:41.014Z,96983.31
2019-02-02T06:31:15.034Z,96979.69
2019-02-02T06:32:24.024Z,96986.03
2019-02-02T06:33:32.634Z,96983.55
2019-02-02T06:34:40.630Z,96995.69
2019-02-02T06:35:49.041Z,97007.39
2019-02-02T06:36:57.143Z,97005.43
2019-02-02T06:38:05.785Z,97006.75
2019-02-02T06:39:13.916Z,97011.42
2019-02-02T06:40:22.091Z,97011.27
2019-02-02T06:41:30.934Z,97009.80
2019-02-02T06:42:38.971Z,97011.47
2019-02-02T06:43:46.988Z,97009.05
2019-02-02T06:44:55.175Z,97011.88
2019-02-02T06:46:03.515Z,97019.01
2019-02-02T06:47:11.555Z,97020.06
2019-02-02T06:48:19.732Z,97021.42
2019-02-02T06:49:27.454Z,97024.77
2019-02-02T06:50:35.434Z,97024.28
2019-02-02T06:51:43.690Z,97021.83
2019-02-02T06:52:51.902Z,97030.44
2019-02-02T06:54:00.145Z,97029.83
2019-02-02T06:55:12.400Z,97022.09
2019-02-02T06:56:20.071Z,97027.56
2019-02-02T06:57:27.929Z,97029.59
2019-02-02T06:58:36.213Z,97028.45
2019-02-02T06:59:44.471Z,97026.34
2019-02-02T07:00:53.031Z,97026.22
2019-02-02T07:02:00.997Z,97028.59
2019-02-02T07:03:11.147Z,97032.28
2019-02-02T07:04:19.478Z,97033.80
2019-02-02T07:05:27.726Z,97037.45
2019-02-02T07:06:35.899Z,97038.50
2019-02-02T07:07:44.262Z,97027.28
2019-02-02T07:08:52.861Z,97037.92
2019-02-02T07:10:00.874Z,97033.65
2019-02-02T07:11:09.146Z,97041.77
2019-02-02T07:12:16.810Z,97037.68
2019-02-02T07:13:25.209Z,97035.71
2019-02-02T07:14:35.425Z,97037.71
2019-02-02T07:15:43.898Z,97035.73
2019-02-02T07:16:51.933Z,97041.86
2019-02-02T07:18:00.282Z,97041.03
2019-02-02T07:19:09.067Z,97042.91
2019-02-02T07:20:18.445Z,97044.08
2019-02-02T07:21:26.415Z,97038.14
2019-02-02T07:22:35.760Z,97038.02
2019-02-02T07:23:44.672Z,97042.81
2019-02-02T07:24:53.298Z,97038.02
2019-02-02T07:26:01.548Z,97038.84
2019-02-02T07:27:09.710Z,97021.31
2019-02-02T07:28:17.856Z,97035.22
2019-02-02T07:29:26.148Z,97032.75
2019-02-02T07:30:34.515Z,97041.03
2019-02-02T07:31:42.981Z,97045.33
2019-02-02T07:32:51.483Z,97044.84
2019-02-02T07:34:00.007Z,97045.05
2019-02-02T07:35:11.321Z,97049.36
2019-02-02T07:36:19.280Z,97052.19
2019-02-02T07:37:30.197Z,97058.31
2019-02-02T07:38:39.579Z,97046.63
2019-02-02T07:39:50.080Z,97054.09
2019-02-02T07:40:59.020Z,97054.80
2019-02-02T07:42:08.046Z,97060.27
2019-02-02T07:43:16.662Z,97060.33
2019-02-02T07:44:25.656Z,97066.63
2019-02-02T07:45:34.574Z,97070.66
2019-02-02T07:46:42.554Z,97063.89
2019-02-02T07:47:50.841Z,97062.90
2019-02-02T07:48:59.249Z,97063.23
2019-02-02T07:50:16.050Z,97057.95
2019-02-02T07:51:24.564Z,97061.08
2019-02-02T07:52:32.762Z,97077.48
2019-02-02T07:53:41.977Z,97051.02
2019-02-02T07:54:49.893Z,97058.95
2019-02-02T07:55:58.537Z,97068.58
2019-02-02T07:57:06.799Z,97070.73
2019-02-02T07:58:15.374Z,97070.58
2019-02-02T07:59:23.773Z,97055.53
2019-02-02T08:00:41.537Z,97057.53
2019-02-02T08:01:47.005Z,97048.47
2019-02-02T08:02:54.926Z,97061.89
2019-02-02T08:04:03.754Z,97049.48
2019-02-02T08:05:12.981Z,97045.52
2019-02-02T08:06:21.405Z,97054.13
2019-02-02T08:07:30.006Z,97073.20
2019-02-02T08:08:38.328Z,97062.80
2019-02-02T08:09:47.043Z,97055.52
2019-02-02T08:10:55.786Z,97070.14
2019-02-02T08:12:04.532Z,97053.27
2019-02-02T08:13:13.241Z,97082.77
2019-02-02T08:14:21.932Z,97081.63
2019-02-02T08:15:33.292Z,97072.41
2019-02-02T08:16:41.385Z,97084.84
2019-02-02T08:17:49.870Z,97079.93
2019-02-02T08:18:58.218Z,97076.84
2019-02-02T08:20:13.747Z,97081.03
2019-02-02T08:21:21.731Z,97086.89
2019-02-02T08:22:29.861Z,97083.80
2019-02-02T08:23:37.689Z,97085.34
2019-02-02T08:24:46.149Z,97068.63
2019-02-02T08:25:54.445Z,97069.50
2019-02-02T08:27:02.582Z,97076.14
2019-02-02T08:28:11.259Z,97074.68
2019-02-02T08:29:20.043Z,97068.05
2019-02-02T08:30:35.728Z,97076.02
2019-02-02T08:31:43.425Z,97071.88
2019-02-02T08:32:51.612Z,97074.44
2019-02-02T08:33:59.697Z,97078.45
2019-02-02T08:35:08.886Z,97070.83
2019-02-02T08:36:16.922Z,97077.34
2019-02-02T08:37:24.787Z,97071.08
2019-02-02T08:38:32.610Z,97074.56
2019-02-02T08:39:41.138Z,97070.29
2019-02-02T08:40:49.381Z,97076.09
2019-02-02T08:41:57.529Z,97077.78
2019-02-02T08:43:06.301Z,97075.80
2019-02-02T08:44:14.267Z,97071.02
2019-02-02T08:45:22.598Z,97074.04
2019-02-02T08:46:30.595Z,97073.70
2019-02-02T08:47:38.731Z,97076.39
2019-02-02T08:48:46.417Z,97069.59
2019-02-02T08:49:54.181Z,97082.36
2019-02-02T08:51:02.608Z,97070.12
2019-02-02T08:52:10.500Z,97073.46
2019-02-02T08:53:18.972Z,97073.79
2019-02-02T08:54:27.537Z,97078.46
2019-02-02T08:55:35.632Z,97078.62
2019-02-02T08:56:44.084Z,97072.81
2019-02-02T08:57:52.620Z,97079.13
2019-02-02T08:59:00.822Z,97071.98
2019-02-02T09:00:18.153Z,97071.98
2019-02-02T09:01:26.763Z,97070.50
2019-02-02T09:04:00.616Z,97073.67
2019-02-02T09:05:11.522Z,97074.97
2019-02-02T09:06:20.280Z,97074.14
2019-02-02T09:07:30.354Z,97082.94
2019-02-02T09:08:38.624Z,97076.80
2019-02-02T09:09:47.449Z,97077.14
2019-02-02T09:10:55.704Z,97084.08
2019-02-02T09:12:04.478Z,97084.91
2019-02-02T09:13:12.578Z,97088.55
2019-02-02T09:14:20.883Z,97089.05
2019-02-02T09:15:29.717Z,97076.91
2019-02-02T09:16:37.855Z,97078.91
2019-02-02T09:17:46.657Z,97089.19
2019-02-02T09:18:55.010Z,97082.42
2019-02-02T09:20:03.493Z,97086.73
2019-02-02T09:21:12.062Z,97075.81
2019-02-02T09:22:21.270Z,97074.81
2019-02-02T09:23:29.236Z,97085.76
2019-02-02T09:24:39.034Z,97081.11
2019-02-02T09:25:47.276Z,97086.12
2019-02-02T09:26:55.767Z,97091.09
2019-02-02T09:28:03.587Z,97083.47
2019-02-02T09:29:11.694Z,97085.95
2019-02-02T09:30:26.646Z,97086.11
2019-02-02T09:31:34.729Z,97079.17
2019-02-02T09:32:43.203Z,97094.09
2019-02-02T09:33:51.282Z,97084.30
2019-02-02T09:34:59.760Z,97082.67
2019-02-02T09:36:07.965Z,97090.13
2019-02-02T09:37:16.949Z,97088.50
2019-02-02T09:38:24.810Z,97089.18
2019-02-02T09:39:34.501Z,97097.64
2019-02-02T09:40:42.876Z,97083.03
2019-02-02T09:41:53.096Z,97109.11
2019-02-02T09:43:01.643Z,97107.11
2019-02-02T09:44:10.117Z,97092.52
2019-02-02T09:45:22.009Z,97099.16
2019-02-02T09:46:30.665Z,97093.87
2019-02-02T09:47:38.772Z,97090.72
2019-02-02T09:48:47.372Z,97091.74
2019-02-02T09:49:55.602Z,97100.05
2019-02-02T09:51:04.581Z,97094.55
2019-02-02T09:52:13.045Z,97096.05
2019-02-02T09:53:22.201Z,97096.52
2019-02-02T09:54:31.010Z,97108.86
2019-02-02T09:55:39.207Z,97090.41
2019-02-02T09:56:49.013Z,97112.82
2019-02-02T09:58:02.559Z,97098.20
2019-02-02T09:59:11.313Z,97090.54
2019-02-02T10:00:31.312Z,97104.52
2019-02-02T10:01:39.741Z,97078.59
2019-02-02T10:02:48.732Z,97081.42
2019-02-02T10:03:57.001Z,97084.41
2019-02-02T10:05:06.773Z,97078.90
2019-02-02T10:06:16.188Z,97088.03
2019-02-02T10:07:25.389Z,97083.89
2019-02-02T10:08:35.678Z,97106.50
2019-02-02T10:09:45.609Z,97075.26
2019-02-02T10:10:53.561Z,97103.52
2019-02-02T10:12:02.271Z,97071.09
2019-02-02T10:13:10.783Z,97089.54
2019-02-02T10:14:18.811Z,97083.72
2019-02-02T10:15:27.575Z,97083.37
2019-02-02T10:16:38.666Z,97081.04
2019-02-02T10:17:50.362Z,97110.78
2019-02-02T10:18:59.876Z,97095.14
2019-02-02T10:20:19.633Z,97091.48
2019-02-02T10:21:28.860Z,97091.16
2019-02-02T10:22:37.683Z,97083.50
2019-02-02T10:23:45.665Z,97091.48
2019-02-02T10:24:54.290Z,97079.18
2019-02-02T10:26:05.244Z,97086.66
2019-02-02T10:27:14.987Z,97099.94
2019-02-02T10:28:23.210Z,97091.13
2019-02-02T10:29:32.816Z,97102.60
2019-02-02T10:30:43.106Z,97103.58
2019-02-02T10:31:55.285Z,97088.79
2019-02-02T10:33:05.750Z,97091.42
2019-02-02T10:34:14.332Z,97087.39
2019-02-02T10:35:22.714Z,97084.05
2019-02-02T10:36:30.530Z,97091.16
2019-02-02T10:37:38.923Z,97095.80
2019-02-02T10:38:47.095Z,97093.93
2019-02-02T10:40:09.300Z,97104.75
2019-02-02T10:41:18.026Z,97092.95
2019-02-02T10:42:26.746Z,97091.59
2019-02-02T10:43:35.569Z,97089.64
2019-02-02T10:44:43.914Z,97089.09
2019-02-02T10:45:52.164Z,97091.39
2019-02-02T10:47:00.572Z,97099.73
2019-02-02T10:48:08.981Z,97101.71
2019-02-02T10:49:16.967Z,97099.83
2019-02-02T10:50:27.159Z,97096.80
2019-02-02T10:51:35.544Z,97086.14
2019-02-02T10:52:43.509Z,97099.83
2019-02-02T10:53:52.644Z,97091.52
2019-02-02T10:55:01.449Z,97106.03
2019-02-02T10:56:10.048Z,97106.22
2019-02-02T10:57:17.840Z,97094.09
2019-02-02T10:58:27.227Z,97107.91
2019-02-02T10:59:35.176Z,97095.44
2019-02-02T11:00:42.961Z,97092.95
2019-02-02T11:01:51.476Z,97106.96
2019-02-02T11:02:59.380Z,97091.95
2019-02-02T11:04:07.711Z,97094.15
2019-02-02T11:05:17.093Z,97091.48
2019-02-02T11:06:25.711Z,97087.03
2019-02-02T11:07:35.079Z,97095.02
2019-02-02T11:08:43.903Z,97095.16
2019-02-02T11:09:51.963Z,97099.02
2019-02-02T11:11:00.841Z,97102.03
2019-02-02T11:12:08.845Z,97082.71
2019-02-02T11:13:17.368Z,97095.77
2019-02-02T11:14:25.698Z,97105.89
2019-02-02T11:15:33.706Z,97098.77
2019-02-02T11:16:42.381Z,97089.81
2019-02-02T11:17:50.696Z,97090.12
2019-02-02T11:18:58.898Z,97095.47
2019-02-02T11:20:11.609Z,97086.46
2019-02-02T11:21:19.727Z,97087.98
2019-02-02T11:22:28.867Z,97105.75
2019-02-02T11:23:37.455Z,97086.45
2019-02-02T11:24:46.215Z,97095.27
2019-02-02T11:25:55.899Z,97097.04
2019-02-02T11:27:04.253Z,97103.49
2019-02-02T11:28:12.745Z,97093.09
2019-02-02T11:29:20.770Z,97101.45
2019-02-02T11:30:29.300Z,97104.55
2019-02-02T11:31:37.947Z,97104.34
2019-02-02T11:32:45.867Z,97109.42
2019-02-02T11:33:54.631Z,97100.86
2019-02-02T11:35:02.694Z,97095.19
2019-02-02T11:36:10.932Z,97083.51
2019-02-02T11:37:18.927Z,97086.52
2019-02-02T11:38:27.191Z,97077.33
2019-02-02T11:39:36.815Z,97081.66
2019-02-02T11:40:44.988Z,97076.56
2019-02-02T11:41:52.934Z,97074.02
2019-02-02T11:43:00.909Z,97068.72
2019-02-02T11:44:09.424Z,97062.33
2019-02-02T11:45:17.400Z,97065.66
2019-02-02T11:46:25.520Z,97075.05
2019-02-02T11:47:33.660Z,97046.39
2019-02-02T11:48:41.554Z,97054.16
2019-02-02T11:49:49.347Z,97049.72
2019-02-02T11:50:57.615Z,97049.75
2019-02-02T11:52:05.356Z,97057.02
2019-02-02T11:53:13.834Z,97043.00
2019-02-02T11:54:21.661Z,97041.98
2019-02-02T11:55:30.337Z,97042.59
2019-02-02T11:56:38.740Z,97030.71
2019-02-02T11:57:49.890Z,97045.00
2019-02-02T11:58:57.369Z,97039.84
2019-02-02T12:00:09.855Z,97032.50
2019-02-02T12:01:17.783Z,97027.85
2019-02-02T12:02:26.403Z,97027.77
2019-02-02T12:03:35.980Z,97022.19
2019-02-02T12:04:45.474Z,97018.89
2019-02-02T12:05:53.448Z,97015.52
2019-02-02T12:07:01.367Z,97027.94
2019-02-02T12:08:09.173Z,97024.65
2019-02-02T12:09:16.909Z,97021.09
2019-02-02T12:10:33.426Z,97016.55
2019-02-02T12:11:41.526Z,97018.44
2019-02-02T12:12:50.003Z,97017.20
2019-02-02T12:13:58.137Z,97023.59
2019-02-02T12:15:13.719Z,97018.02
2019-02-02T12:16:21.947Z,97020.76
2019-02-02T12:17:29.970Z,97032.27
2019-02-02T12:18:38.050Z,97037.84
2019-02-02T12:19:46.029Z,97037.69
2019-02-02T12:20:54.176Z,97030.20
2019-02-02T12:22:02.172Z,97040.05
2019-02-02T12:23:10.013Z,97029.80
2019-02-02T12:24:18.108Z,97040.40
2019-02-02T12:25:26.563Z,97030.45
2019-02-02T12:26:34.502Z,97023.41
2019-02-02T12:27:42.587Z,97030.89
2019-02-02T12:28:50.855Z,97045.92
2019-02-02T12:29:58.847Z,97033.66
2019-02-02T12:31:06.642Z,97025.91
2019-02-02T12:32:25.910Z,97027.58
2019-02-02T12:33:25.970Z,97019.14
2019-02-02T12:34:34.104Z,97006.73
2019-02-02T12:35:42.135Z,97020.39
2019-02-02T12:36:50.621Z,97014.12
2019-02-02T12:37:58.920Z,97022.57
2019-02-02T12:39:10.339Z,97014.77
2019-02-02T12:40:21.924Z,97003.15
2019-02-02T12:41:30.173Z,97000.05
2019-02-02T12:42:37.600Z,97001.88
2019-02-02T12:43:45.925Z,96986.05
2019-02-02T12:44:54.056Z,96993.78
2019-02-02T12:46:02.229Z,96981.98
2019-02-02T12:47:11.724Z,97022.12
2019-02-02T12:48:20.155Z,96981.93
2019-02-02T12:49:28.429Z,96997.91
2019-02-02T12:50:36.586Z,97000.53
2019-02-02T12:51:45.212Z,96993.77
2019-02-02T12:52:53.352Z,96996.81
2019-02-02T12:54:01.676Z,96999.62
2019-02-02T12:55:11.047Z,97005.37
2019-02-02T12:56:19.129Z,97020.05
2019-02-02T12:57:27.004Z,97030.27
2019-02-02T12:58:35.302Z,97038.81
2019-02-02T12:59:43.195Z,97053.42
2019-02-02T13:00:51.391Z,97043.28
2019-02-02T13:01:59.293Z,97057.51
2019-02-02T13:03:07.279Z,97063.30
2019-02-02T13:04:15.325Z,97059.73
2019-02-02T13:05:24.363Z,97073.91
2019-02-02T13:06:32.282Z,97054.83
2019-02-02T13:07:40.695Z,97063.30
2019-02-02T13:08:48.471Z,97080.48
2019-02-02T13:09:57.766Z,97100.65
2019-02-02T13:11:06.058Z,97078.25
2019-02-02T13:12:14.240Z,97065.52
2019-02-02T13:13:23.052Z,97055.28
2019-02-02T13:14:31.017Z,97077.31
2019-02-02T13:15:39.888Z,97074.37
2019-02-02T13:16:50.053Z,97064.73
2019-02-02T13:17:58.163Z,97067.40
2019-02-02T13:19:05.934Z,97070.91
2019-02-02T13:20:16.755Z,97058.97
2019-02-02T13:21:25.630Z,97063.00
2019-02-02T13:22:34.623Z,97062.84
2019-02-02T13:23:42.698Z,97061.37
2019-02-02T13:24:51.090Z,97059.75
2019-02-02T13:26:05.438Z,97053.47
2019-02-02T13:27:12.001Z,97051.81